Terminal Aerodrome Forecast
Issued by NWS Grand Forks, ND

Home | Current Version | Previous Version | Text Only | Print | Product List | Glossary Off
Versions: 1 2 3 4 5 6 7 8 9 10 11 12 13 14 15 16

428
FTUS43 KFGF 240539
TAFFAR
TAF
KFAR 240539Z 2406/2506 01013KT P6SM SCT025
      TEMPO 2406/2409 BKN025
     FM240900 01014KT P6SM SCT035
     FM250300 34013KT P6SM SCT060=

USA.gov is the U.S. government's official web portal to all federal, state and local government web resources and services.